Time;durP1;ratioP1;P1;durP2;ratioP2;P2;SDS_P1;SDS_P2;PMS_P1;PMS_P2;Temp;Humidity;BMP_temperature;BMP_pressure;BME280_temperature;BME280_humidity;BME280_pressure;Samples;Min_cycle;Max_cycle;Signal;HPM_P1;HPM_P2
2021/12/06 00:01:14;;;;;;;24.23;13.88;;;0.20;99.90;;;;;;4996513;28;20030;-83
2021/12/06 00:03:51;;;;;;;26.90;13.10;;;0.30;99.90;;;;;;4963436;28;20034;-83
2021/12/06 00:06:19;;;;;;;23.90;12.77;;;0.30;99.90;;;;;;4996935;28;20042;-83
2021/12/06 00:08:46;;;;;;;26.63;14.02;;;0.20;99.90;;;;;;4979517;28;20030;-83
2021/12/06 00:11:13;;;;;;;30.58;14.40;;;0.20;99.90;;;;;;4979457;28;20031;-83
2021/12/06 00:13:42;;;;;;;62.10;25.00;;;0.20;99.90;;;;;;4979300;28;20084;-83
2021/12/06 00:16:14;;;;;;;54.63;23.88;;;0.10;99.90;;;;;;4996827;28;20077;-83
2021/12/06 00:18:40;;;;;;;43.25;20.45;;;0.10;99.90;;;;;;4979411;28;20030;-83
2021/12/06 00:21:07;;;;;;;35.92;16.45;;;0.10;99.90;;;;;;4996681;28;20080;-83
2021/12/06 00:23:33;;;;;;;35.67;17.05;;;0.10;99.90;;;;;;4963192;28;20502;-83
2021/12/06 00:26:00;;;;;;;33.10;17.58;;;0.00;99.90;;;;;;4979111;28;20030;-83
2021/12/06 00:28:26;;;;;;;44.60;21.98;;;-0.10;99.90;;;;;;4996559;28;20351;-83
2021/12/06 00:30:52;;;;;;;42.92;19.85;;;-0.20;99.90;;;;;;4979392;28;20104;-83
2021/12/06 00:33:18;;;;;;;41.20;19.90;;;-0.20;99.90;;;;;;4978937;28;20117;-83
2021/12/06 00:35:45;;;;;;;36.75;18.30;;;-0.20;99.90;;;;;;4962645;28;20037;-83
2021/12/06 00:38:11;;;;;;;44.38;18.25;;;-0.20;99.90;;;;;;4979005;28;20077;-83
2021/12/06 00:40:41;;;;;;;34.85;15.07;;;-0.30;99.90;;;;;;4978899;28;20058;-83
2021/12/06 00:43:08;;;;;;;39.70;15.77;;;-0.30;99.90;;;;;;4962771;28;20038;-83
2021/12/06 00:45:33;;;;;;;37.90;15.55;;;-0.40;99.90;;;;;;4978649;28;20038;-83
2021/12/06 00:48:00;;;;;;;32.05;15.85;;;-0.30;99.90;;;;;;4962536;28;20125;-84
2021/12/06 00:50:31;;;;;;;36.10;15.05;;;-0.30;99.90;;;;;;4962790;28;20034;-83
2021/12/06 00:52:58;;;;;;;30.58;15.68;;;-0.30;99.90;;;;;;4978441;28;20039;-83
2021/12/06 00:55:25;;;;;;;34.00;15.73;;;-0.30;99.90;;;;;;4978429;28;20092;-83
2021/12/06 00:57:53;;;;;;;34.25;15.80;;;-0.30;99.90;;;;;;4962399;28;20031;-83
2021/12/06 01:00:30;;;;;;;35.72;16.17;;;-0.40;99.90;;;;;;4962543;28;20026;-83
2021/12/06 01:02:56;;;;;;;36.42;16.50;;;-0.40;99.90;;;;;;4962484;28;20026;-83
2021/12/06 01:05:26;;;;;;;39.30;16.83;;;-0.40;99.90;;;;;;4962258;28;20481;-83
2021/12/06 01:07:54;;;;;;;38.95;16.52;;;-0.40;99.90;;;;;;4978389;28;20034;-83
2021/12/06 01:10:22;;;;;;;36.45;15.80;;;-0.50;99.90;;;;;;4978454;28;20485;-83
2021/12/06 01:12:48;;;;;;;42.80;17.05;;;-0.50;99.90;;;;;;4961419;28;20137;-83
2021/12/06 01:15:14;;;;;;;36.28;16.73;;;-0.50;99.90;;;;;;4978334;28;20427;-83
2021/12/06 01:17:40;;;;;;;36.97;16.52;;;-0.40;99.90;;;;;;4978356;28;20065;-83
2021/12/06 01:20:10;;;;;;;46.28;17.67;;;-0.40;99.90;;;;;;4962037;28;20068;-83
2021/12/06 01:22:59;;;;;;;39.35;15.82;;;-0.30;99.90;;;;;;4995623;28;20026;-83
2021/12/06 01:25:36;;;;;;;41.08;16.55;;;-0.30;99.90;;;;;;4995582;28;20030;-83
2021/12/06 01:28:33;;;;;;;37.38;17.05;;;-0.20;99.90;;;;;;4961938;28;20062;-83
2021/12/06 01:31:21;;;;;;;36.70;18.23;;;-0.20;99.90;;;;;;4995282;28;20190;-83
2021/12/06 01:34:09;;;;;;;38.25;17.17;;;-0.20;99.90;;;;;;4961937;28;20034;-83
2021/12/06 01:39:24;;;;;;;42.30;16.98;;;-0.10;99.90;;;;;;4978214;28;20026;-83
2021/12/06 01:41:56;;;;;;;41.72;17.52;;;-0.10;99.90;;;;;;4961945;28;20077;-84
2021/12/06 01:44:28;;;;;;;35.85;16.77;;;-0.10;99.90;;;;;;4977932;28;20395;-84
2021/12/06 01:47:10;;;;;;;47.33;17.67;;;-0.10;99.90;;;;;;4977903;28;20038;-84
2021/12/06 01:49:39;;;;;;;34.45;16.17;;;-0.10;99.90;;;;;;4978018;28;20394;-83
2021/12/06 01:52:10;;;;;;;39.55;17.65;;;-0.10;99.90;;;;;;4977643;28;20033;-84
2021/12/06 01:54:38;;;;;;;38.65;17.00;;;-0.10;99.90;;;;;;4961828;28;20030;-83
2021/12/06 01:57:05;;;;;;;37.80;17.00;;;-0.10;99.90;;;;;;4961683;28;20031;-84
2021/12/06 01:59:30;;;;;;;40.75;16.60;;;-0.10;99.90;;;;;;4961608;28;20435;-83
2021/12/06 02:01:56;;;;;;;38.75;17.85;;;-0.10;99.90;;;;;;4961532;28;20233;-84
2021/12/06 02:04:24;;;;;;;41.67;17.35;;;-0.10;99.90;;;;;;4977277;28;20030;-84
2021/12/06 02:06:50;;;;;;;41.72;18.15;;;-0.10;99.90;;;;;;4977554;28;20031;-83
2021/12/06 02:09:17;;;;;;;47.35;18.10;;;-0.20;99.90;;;;;;4961265;28;20045;-84
2021/12/06 02:11:45;;;;;;;45.72;19.48;;;-0.10;99.90;;;;;;4961367;28;20026;-84
2021/12/06 02:16:58;;;;;;;36.00;15.93;;;-0.10;99.90;;;;;;4977348;28;20026;-84
2021/12/06 02:19:31;;;;;;;38.92;17.13;;;-0.20;99.90;;;;;;4961399;28;20026;-84
2021/12/06 02:21:57;;;;;;;49.83;18.92;;;-0.10;99.90;;;;;;4977599;28;20037;-84
2021/12/06 02:24:23;;;;;;;45.30;19.45;;;-0.10;99.90;;;;;;4961109;28;20030;-84
2021/12/06 02:26:51;;;;;;;50.50;18.95;;;0.00;99.90;;;;;;4961257;28;20481;-84
2021/12/06 02:29:17;;;;;;;40.95;17.48;;;0.00;99.90;;;;;;4961340;28;20037;-83
2021/12/06 02:31:43;;;;;;;52.15;21.38;;;0.00;99.90;;;;;;4977296;28;20031;-84
2021/12/06 02:34:09;;;;;;;64.80;23.80;;;0.00;99.90;;;;;;4977287;28;20042;-84
2021/12/06 02:36:35;;;;;;;58.33;22.33;;;0.00;99.90;;;;;;4976943;28;20073;-84
2021/12/06 02:39:01;;;;;;;59.63;21.75;;;0.00;99.90;;;;;;4976638;28;20042;-84
2021/12/06 02:41:27;;;;;;;61.85;23.80;;;0.00;99.90;;;;;;4960916;28;20030;-84
2021/12/06 02:43:54;;;;;;;40.03;17.25;;;0.00;99.90;;;;;;4960875;28;20113;-83
2021/12/06 02:46:21;;;;;;;46.70;17.92;;;0.10;99.90;;;;;;4960855;28;20052;-84
2021/12/06 02:48:49;;;;;;;56.22;20.55;;;0.10;99.90;;;;;;4976858;28;20121;-83
2021/12/06 02:51:16;;;;;;;57.58;23.38;;;0.10;99.90;;;;;;4961128;28;20173;-84
2021/12/06 02:53:42;;;;;;;76.20;26.35;;;0.20;99.90;;;;;;4977042;28;20031;-83
2021/12/06 02:56:56;;;;;;;69.53;25.63;;;0.20;99.90;;;;;;4977134;28;20386;-83
2021/12/06 02:59:04;;;;;;;70.25;27.77;;;0.30;99.90;;;;;;4969445;28;20045;-84
2021/12/06 03:01:33;;;;;;;89.13;30.42;;;0.20;99.90;;;;;;4976927;28;20504;-83
2021/12/06 03:04:01;;;;;;;81.28;32.30;;;0.20;99.90;;;;;;4976725;28;20456;-83
2021/12/06 03:06:28;;;;;;;96.68;32.60;;;0.20;99.90;;;;;;4960873;28;20409;-84
2021/12/06 03:09:05;;;;;;;87.55;31.40;;;0.20;99.90;;;;;;4960673;28;20030;-83
2021/12/06 03:11:50;;;;;;;86.28;30.20;;;0.20;99.90;;;;;;4976639;28;20041;-83
2021/12/06 03:14:23;;;;;;;76.40;27.75;;;0.20;99.90;;;;;;4976818;28;20381;-84
2021/12/06 03:16:52;;;;;;;79.22;27.30;;;0.20;99.90;;;;;;4960970;28;20034;-84
2021/12/06 03:19:18;;;;;;;94.20;29.08;;;0.20;99.90;;;;;;4960594;28;20037;-83
2021/12/06 03:21:44;;;;;;;90.13;28.45;;;0.20;99.90;;;;;;4976623;28;20533;-83
2021/12/06 03:24:11;;;;;;;84.45;26.70;;;0.10;99.90;;;;;;4976619;28;20036;-84
2021/12/06 03:26:39;;;;;;;67.65;26.40;;;0.20;99.90;;;;;;4994058;28;20084;-83
2021/12/06 03:29:06;;;;;;;72.40;25.92;;;0.10;99.90;;;;;;4960512;28;20065;-84
2021/12/06 03:31:32;;;;;;;63.75;24.08;;;0.10;99.90;;;;;;4976482;28;20074;-84
2021/12/06 03:34:02;;;;;;;87.25;27.27;;;0.00;99.90;;;;;;4961199;28;20478;-84
2021/12/06 03:36:32;;;;;;;401.25;45.88;;;0.00;99.90;;;;;;4978832;28;20042;-84
2021/12/06 03:38:59;;;;;;;427.48;49.67;;;-0.10;99.90;;;;;;4980214;28;20022;-84
2021/12/06 03:41:27;;;;;;;613.60;59.33;;;0.00;99.90;;;;;;4964238;28;20117;-84
2021/12/06 03:43:54;;;;;;;118.15;34.17;;;0.00;99.90;;;;;;4964035;28;20027;-84
2021/12/06 03:46:23;;;;;;;150.32;35.00;;;0.00;99.90;;;;;;4980040;28;20121;-84
2021/12/06 03:48:48;;;;;;;179.43;39.05;;;0.00;99.90;;;;;;4979831;28;20459;-83
2021/12/06 03:51:15;;;;;;;296.35;41.25;;;0.10;99.90;;;;;;4964064;28;20034;-84
2021/12/06 03:53:42;;;;;;;368.27;45.97;;;0.10;99.90;;;;;;4980027;28;20030;-84
2021/12/06 03:56:07;;;;;;;480.55;58.78;;;0.20;99.90;;;;;;4963834;28;20057;-84
2021/12/06 03:58:35;;;;;;;432.50;55.63;;;0.20;99.90;;;;;;4963824;28;20113;-84
2021/12/06 04:01:03;;;;;;;255.57;46.33;;;0.20;99.90;;;;;;4963586;28;20169;-84
2021/12/06 04:03:33;;;;;;;247.07;51.20;;;0.20;99.90;;;;;;4963773;28;20053;-84
2021/12/06 04:05:59;;;;;;;727.05;79.57;;;0.20;99.90;;;;;;4979599;28;20026;-83
2021/12/06 04:08:29;;;;;;;187.00;42.47;;;0.20;99.90;;;;;;4964846;28;20087;-84
2021/12/06 04:10:55;;;;;;;247.82;49.05;;;0.20;99.90;;;;;;4979625;28;20018;-83
2021/12/06 04:13:22;;;;;;;301.05;55.53;;;0.30;99.90;;;;;;4979870;28;20472;-83
2021/12/06 04:15:50;;;;;;;260.73;51.30;;;0.30;99.90;;;;;;4979362;28;20109;-83
2021/12/06 04:18:18;;;;;;;316.52;52.58;;;0.30;99.90;;;;;;4963304;28;20034;-83
2021/12/06 04:20:44;;;;;;;268.13;47.67;;;0.20;99.90;;;;;;4979162;28;20076;-82
2021/12/06 04:23:11;;;;;;;418.40;54.60;;;0.20;99.90;;;;;;4979153;28;20026;-82
2021/12/06 04:25:38;;;;;;;303.02;50.97;;;0.20;99.90;;;;;;4979010;28;20469;-82
2021/12/06 04:28:07;;;;;;;360.80;53.58;;;0.20;99.90;;;;;;4978890;28;20031;-82
2021/12/06 04:30:35;;;;;;;240.70;49.00;;;0.30;99.90;;;;;;4962767;28;20026;-83
2021/12/06 04:33:03;;;;;;;280.60;48.95;;;0.20;99.90;;;;;;4962998;28;20398;-83
2021/12/06 04:35:30;;;;;;;204.05;43.15;;;0.20;99.90;;;;;;4962696;28;20026;-83
2021/12/06 04:37:58;;;;;;;194.85;45.10;;;0.20;99.90;;;;;;4962919;28;20038;-83
2021/12/06 04:40:24;;;;;;;238.43;46.22;;;0.10;99.90;;;;;;4962727;28;20030;-83
2021/12/06 04:42:50;;;;;;;220.05;46.92;;;0.20;99.90;;;;;;4978846;28;20053;-83
2021/12/06 04:45:16;;;;;;;233.52;47.40;;;0.20;99.90;;;;;;4962588;28;20031;-83
2021/12/06 04:47:42;;;;;;;416.13;55.28;;;0.10;99.90;;;;;;4977359;28;20470;-83
2021/12/06 04:50:12;;;;;;;296.35;51.28;;;0.10;99.90;;;;;;4978625;28;20448;-83
2021/12/06 04:52:38;;;;;;;340.25;51.88;;;0.20;99.90;;;;;;4962792;28;20037;-83
2021/12/06 04:55:35;;;;;;;688.67;63.25;;;0.20;99.90;;;;;;4962512;28;20022;-83
2021/12/06 04:58:03;;;;;;;451.08;52.63;;;0.20;99.90;;;;;;4962302;28;20089;-83
2021/12/06 05:00:34;;;;;;;184.98;42.25;;;0.20;99.90;;;;;;4962342;28;20121;-83
2021/12/06 05:03:02;;;;;;;290.27;47.20;;;0.10;99.90;;;;;;4978310;28;20497;-83
2021/12/06 05:05:39;;;;;;;328.10;49.60;;;0.10;99.90;;;;;;4962113;28;20088;-83
2021/12/06 05:08:19;;;;;;;193.13;41.67;;;0.10;99.90;;;;;;4962387;28;20034;-83
2021/12/06 05:10:45;;;;;;;202.80;41.30;;;0.20;99.90;;;;;;4962165;28;20494;-83
2021/12/06 05:13:13;;;;;;;241.00;47.10;;;0.20;99.90;;;;;;4962303;28;20119;-83
2021/12/06 05:15:39;;;;;;;217.02;44.35;;;0.20;99.90;;;;;;4978186;28;20030;-83
2021/12/06 05:18:05;;;;;;;176.23;39.70;;;0.30;99.90;;;;;;4978060;28;20097;-83
2021/12/06 05:20:32;;;;;;;165.27;41.13;;;0.30;99.90;;;;;;4961788;28;20027;-83
2021/12/06 05:22:59;;;;;;;186.20;40.17;;;0.30;99.90;;;;;;4961743;28;20026;-84
2021/12/06 05:25:26;;;;;;;171.10;40.10;;;0.30;99.90;;;;;;4977858;28;20478;-83
2021/12/06 05:27:52;;;;;;;170.57;40.25;;;0.30;99.90;;;;;;4961635;28;20030;-83
2021/12/06 05:30:24;;;;;;;163.88;40.75;;;0.20;99.90;;;;;;4961835;28;20034;-83
2021/12/06 05:32:51;;;;;;;153.30;38.25;;;0.30;99.90;;;;;;4961641;28;20102;-83
2021/12/06 05:35:17;;;;;;;173.77;42.97;;;0.30;99.90;;;;;;4995214;28;20062;-83
2021/12/06 05:37:46;;;;;;;178.77;41.13;;;0.20;99.90;;;;;;4961514;28;20109;-83
2021/12/06 05:40:20;;;;;;;126.88;37.50;;;0.20;99.90;;;;;;4977660;28;20168;-83
2021/12/06 05:42:47;;;;;;;160.25;39.33;;;0.20;99.90;;;;;;4995213;28;20502;-83
2021/12/06 05:45:18;;;;;;;144.50;39.00;;;0.20;99.90;;;;;;4961697;28;20129;-83
2021/12/06 05:47:44;;;;;;;161.60;40.75;;;0.30;99.90;;;;;;4977560;28;20397;-83
2021/12/06 05:50:10;;;;;;;130.43;37.47;;;0.30;99.90;;;;;;4977524;28;20114;-83
2021/12/06 05:52:36;;;;;;;140.48;37.95;;;0.20;99.90;;;;;;4961289;28;20030;-83
2021/12/06 05:55:05;;;;;;;161.27;42.47;;;0.20;99.90;;;;;;4961222;28;20032;-83
2021/12/06 05:57:31;;;;;;;162.68;50.40;;;0.30;99.90;;;;;;4961167;28;20037;-83
2021/12/06 05:59:57;;;;;;;137.48;43.95;;;0.20;99.90;;;;;;4994253;28;20125;-83
2021/12/06 06:02:23;;;;;;;149.57;42.47;;;0.20;99.90;;;;;;4977221;28;20114;-83
2021/12/06 06:04:49;;;;;;;143.57;40.22;;;0.20;99.90;;;;;;4994575;28;20034;-83
2021/12/06 06:07:15;;;;;;;153.60;39.28;;;0.20;99.90;;;;;;4977168;28;20553;-83
2021/12/06 06:09:41;;;;;;;142.73;37.55;;;0.20;99.90;;;;;;4960978;28;20035;-83
2021/12/06 06:12:07;;;;;;;139.95;40.28;;;0.20;99.90;;;;;;4960954;28;20445;-83
2021/12/06 06:14:33;;;;;;;153.30;41.75;;;0.20;99.90;;;;;;4960904;28;20033;-84
2021/12/06 06:17:08;;;;;;;178.20;45.20;;;0.20;99.90;;;;;;4960883;28;20041;-83
2021/12/06 06:19:35;;;;;;;169.27;41.22;;;0.20;99.90;;;;;;4960952;28;20092;-83
2021/12/06 06:22:01;;;;;;;151.48;39.45;;;0.20;99.90;;;;;;4994479;28;20034;-84
2021/12/06 06:24:27;;;;;;;142.57;39.17;;;0.20;99.90;;;;;;4976888;28;20038;-83
2021/12/06 06:26:52;;;;;;;166.35;42.58;;;0.20;99.90;;;;;;4976914;28;20501;-83
2021/12/06 06:29:18;;;;;;;159.85;43.20;;;0.10;99.90;;;;;;4976995;28;20453;-83
2021/12/06 06:31:44;;;;;;;129.80;42.22;;;0.20;99.90;;;;;;4994331;28;20034;-83
2021/12/06 06:34:25;;;;;;;141.60;41.08;;;0.20;99.90;;;;;;4976813;28;20029;-84
2021/12/06 06:36:51;;;;;;;136.60;43.58;;;0.10;99.90;;;;;;4960646;28;20030;-83
2021/12/06 06:39:19;;;;;;;170.73;44.47;;;0.20;99.90;;;;;;4976744;28;20041;-83
2021/12/06 06:41:47;;;;;;;136.07;41.42;;;0.20;99.90;;;;;;4976692;28;20038;-84
2021/12/06 06:44:15;;;;;;;125.43;39.05;;;0.20;99.90;;;;;;4994102;28;20034;-83
2021/12/06 06:46:42;;;;;;;154.95;42.75;;;0.10;99.90;;;;;;4976702;28;20042;-83
2021/12/06 06:49:09;;;;;;;124.97;41.53;;;0.20;99.90;;;;;;4993972;28;20045;-83
2021/12/06 06:51:35;;;;;;;141.77;47.15;;;0.20;99.90;;;;;;4960603;28;20035;-84
2021/12/06 06:54:01;;;;;;;128.55;41.33;;;0.20;99.90;;;;;;4976520;28;20845;-83
2021/12/06 06:56:27;;;;;;;158.20;41.65;;;0.20;99.90;;;;;;4960325;28;20038;-83
2021/12/06 06:58:53;;;;;;;139.30;40.55;;;0.20;99.90;;;;;;4960397;28;20030;-83
2021/12/06 07:01:19;;;;;;;138.45;44.35;;;0.20;99.90;;;;;;4960462;28;20121;-83
2021/12/06 07:03:48;;;;;;;161.85;47.72;;;0.20;99.90;;;;;;4993844;28;20027;-83
2021/12/06 07:06:14;;;;;;;162.93;44.08;;;0.20;99.90;;;;;;4976383;28;20037;-83
2021/12/06 07:08:40;;;;;;;153.40;42.85;;;0.20;99.90;;;;;;4960452;28;20470;-84
2021/12/06 07:11:06;;;;;;;121.28;38.47;;;0.20;99.90;;;;;;4995817;28;20382;-84
2021/12/06 07:13:37;;;;;;;157.70;40.17;;;0.20;99.90;;;;;;4964124;28;20037;-84
2021/12/06 07:16:03;;;;;;;128.38;39.17;;;0.20;99.90;;;;;;4964230;28;20054;-84
2021/12/06 07:18:29;;;;;;;127.50;37.25;;;0.20;99.90;;;;;;4964070;28;20093;-84
2021/12/06 07:20:55;;;;;;;133.38;37.53;;;0.20;99.90;;;;;;4980330;28;20034;-84
2021/12/06 07:23:20;;;;;;;148.10;38.30;;;0.20;99.90;;;;;;4964250;28;20494;-84
2021/12/06 07:25:46;;;;;;;136.15;39.72;;;0.20;99.90;;;;;;4964279;28;20030;-84
2021/12/06 07:28:12;;;;;;;114.00;33.25;;;0.20;99.90;;;;;;4964142;28;20485;-85
2021/12/06 07:30:38;;;;;;;121.00;36.13;;;0.20;99.90;;;;;;4964011;28;20379;-84
2021/12/06 07:33:04;;;;;;;130.15;40.47;;;0.20;99.90;;;;;;4964020;28;20065;-85
2021/12/06 07:35:31;;;;;;;139.55;48.58;;;0.20;99.90;;;;;;4980026;28;20030;-84
2021/12/06 07:37:58;;;;;;;167.93;50.08;;;0.30;99.90;;;;;;4964127;28;20037;-84
2021/12/06 07:40:24;;;;;;;125.93;44.20;;;0.30;99.90;;;;;;4997666;28;20030;-84
2021/12/06 07:42:50;;;;;;;130.13;46.13;;;0.30;99.90;;;;;;4963794;28;20153;-84
2021/12/06 07:45:16;;;;;;;137.63;45.45;;;0.40;99.90;;;;;;4980150;28;20367;-84
2021/12/06 07:47:42;;;;;;;150.50;47.15;;;0.30;99.90;;;;;;4997328;28;20034;-83
2021/12/06 07:50:12;;;;;;;139.88;46.97;;;0.30;99.90;;;;;;4997339;28;20026;-84
2021/12/06 07:52:39;;;;;;;157.20;46.08;;;0.40;99.90;;;;;;4964277;28;20061;-84
2021/12/06 07:55:07;;;;;;;115.32;39.47;;;0.40;99.90;;;;;;4963440;28;20034;-84
2021/12/06 07:57:33;;;;;;;111.35;38.35;;;0.40;99.90;;;;;;4963531;28;20030;-85
2021/12/06 07:59:59;;;;;;;139.32;43.10;;;0.40;99.90;;;;;;4963302;28;20027;-84
2021/12/06 08:02:25;;;;;;;118.13;39.28;;;0.50;99.90;;;;;;4963308;28;20026;-84
2021/12/06 08:05:29;;;;;;;120.88;37.55;;;0.40;99.90;;;;;;4963119;28;20092;-84
2021/12/06 08:07:37;;;;;;;188.88;73.57;;;0.50;99.90;;;;;;4979465;28;20065;-85
2021/12/06 08:10:03;;;;;;;190.70;76.10;;;0.50;99.90;;;;;;4979419;28;20034;-85
2021/12/06 08:12:29;;;;;;;190.38;62.78;;;0.60;99.90;;;;;;4963112;28;20113;-84
2021/12/06 08:14:55;;;;;;;286.52;71.57;;;0.50;99.90;;;;;;4963117;28;20109;-85
2021/12/06 08:17:25;;;;;;;208.55;42.10;;;0.50;99.90;;;;;;4997018;28;20030;-85
2021/12/06 08:19:51;;;;;;;207.77;37.75;;;0.50;99.90;;;;;;4963420;28;20101;-85
2021/12/06 08:22:17;;;;;;;149.32;39.60;;;0.60;99.90;;;;;;4979055;28;20446;-85
2021/12/06 08:24:42;;;;;;;103.10;31.83;;;0.60;99.90;;;;;;4979619;28;20479;-85
2021/12/06 08:27:08;;;;;;;223.32;36.42;;;0.60;99.90;;;;;;4963061;28;20034;-85
2021/12/06 08:29:37;;;;;;;146.88;31.35;;;0.60;99.90;;;;;;4979276;28;20084;-85
2021/12/06 08:32:03;;;;;;;401.58;48.15;;;0.70;99.90;;;;;;4962922;28;20041;-85
2021/12/06 08:34:29;;;;;;;292.48;46.03;;;0.80;99.90;;;;;;4962847;28;20026;-84
2021/12/06 08:36:55;;;;;;;126.55;30.75;;;0.80;99.90;;;;;;4978963;28;20034;-84
2021/12/06 08:39:20;;;;;;;154.63;34.92;;;0.90;99.90;;;;;;4979060;28;20462;-85
2021/12/06 08:41:46;;;;;;;320.95;59.63;;;1.00;99.90;;;;;;4979280;28;20460;-85
2021/12/06 08:44:13;;;;;;;442.70;40.85;;;1.10;99.90;;;;;;4996289;28;20037;-83
2021/12/06 08:46:41;;;;;;;369.38;36.10;;;1.20;99.90;;;;;;4996671;28;20113;-85
2021/12/06 08:49:09;;;;;;;292.38;39.63;;;1.10;99.90;;;;;;4978993;28;20390;-84
2021/12/06 08:51:40;;;;;;;293.10;43.33;;;1.10;99.90;;;;;;4978754;28;20038;-85
2021/12/06 08:54:08;;;;;;;177.82;28.48;;;1.10;99.90;;;;;;4962588;28;20031;-85
2021/12/06 08:56:35;;;;;;;421.40;42.47;;;1.10;99.90;;;;;;4978785;28;20042;-85
2021/12/06 08:59:01;;;;;;;351.95;41.42;;;1.10;99.90;;;;;;4962411;28;20077;-84
2021/12/06 09:01:28;;;;;;;170.65;31.88;;;1.20;99.90;;;;;;4995871;28;20033;-85
2021/12/06 09:03:54;;;;;;;511.92;42.67;;;1.20;99.90;;;;;;4979848;28;20478;-85
2021/12/06 09:06:20;;;;;;;146.00;28.23;;;1.20;99.90;;;;;;4978812;28;20041;-85
2021/12/06 09:08:48;;;;;;;83.07;24.05;;;1.30;99.90;;;;;;4966714;28;20033;-84
2021/12/06 09:11:14;;;;;;;99.10;25.63;;;1.40;99.90;;;;;;4962644;28;20496;-85
2021/12/06 09:13:41;;;;;;;158.77;29.00;;;1.40;99.90;;;;;;4962379;28;20177;-85
2021/12/06 09:16:09;;;;;;;85.95;25.40;;;1.50;99.90;;;;;;4962498;28;20029;-84
2021/12/06 09:18:38;;;;;;;123.50;27.02;;;1.60;99.90;;;;;;4978648;28;20073;-85
2021/12/06 09:21:15;;;;;;;130.85;28.08;;;1.70;99.90;;;;;;4962423;28;20034;-85
2021/12/06 09:23:42;;;;;;;72.95;25.15;;;1.80;99.90;;;;;;4978413;28;20493;-84
2021/12/06 09:26:08;;;;;;;103.40;25.13;;;1.80;99.90;;;;;;4962293;28;20030;-85
2021/12/06 09:28:34;;;;;;;158.55;26.80;;;1.80;99.90;;;;;;4962601;28;20030;-84
2021/12/06 09:31:01;;;;;;;69.13;22.20;;;1.80;99.90;;;;;;4978349;28;20085;-84
2021/12/06 09:33:28;;;;;;;361.63;34.25;;;1.70;99.90;;;;;;4961409;28;20494;-85
2021/12/06 09:35:57;;;;;;;195.48;25.33;;;1.70;99.90;;;;;;4962007;28;20031;-86
2021/12/06 09:38:27;;;;;;;196.40;25.80;;;1.70;99.90;;;;;;4961932;28;20450;-86
2021/12/06 09:40:56;;;;;;;174.00;29.88;;;1.80;99.90;;;;;;4961906;28;20049;-86
2021/12/06 09:43:23;;;;;;;126.57;42.38;;;1.60;99.90;;;;;;4993756;28;20038;-86
2021/12/06 09:45:49;;;;;;;105.82;29.60;;;1.60;99.90;;;;;;4995228;28;20456;-86
2021/12/06 09:51:51;;;;;;;199.30;32.83;;;1.80;99.90;;;;;;4995344;28;20031;-85
2021/12/06 09:54:37;;;;;;;87.10;29.80;;;2.10;99.90;;;;;;4994552;28;20042;-86
2021/12/06 09:57:04;;;;;;;86.00;30.92;;;2.20;99.90;;;;;;4957547;28;93114;-85
2021/12/06 09:59:31;;;;;;;63.70;26.23;;;2.30;99.90;;;;;;4971595;28;20024;-86
2021/12/06 10:02:05;;;;;;;77.40;29.55;;;2.60;99.90;;;;;;4971308;28;20070;-86
2021/12/06 10:04:35;;;;;;;72.20;30.50;;;2.50;99.90;;;;;;4970981;28;20035;-85
2021/12/06 10:07:02;;;;;;;58.78;25.08;;;2.50;99.90;;;;;;4971794;28;20035;-86
2021/12/06 10:09:28;;;;;;;72.72;32.13;;;2.70;99.90;;;;;;4955458;28;20094;-86
2021/12/06 10:11:56;;;;;;;78.50;31.85;;;2.40;99.90;;;;;;4971060;28;20045;-86
2021/12/06 10:14:22;;;;;;;68.88;28.38;;;2.30;99.90;;;;;;4970971;28;20031;-86
2021/12/06 10:16:48;;;;;;;62.28;26.77;;;2.30;99.90;;;;;;4971104;28;20027;-85
2021/12/06 10:19:15;;;;;;;51.63;23.42;;;2.40;99.90;;;;;;4971381;28;20034;-86
2021/12/06 10:21:43;;;;;;;54.08;24.60;;;2.60;99.90;;;;;;4971040;28;20045;-86
2021/12/06 10:24:12;;;;;;;52.38;24.33;;;2.80;99.90;;;;;;4971734;28;20039;-86
2021/12/06 10:26:38;;;;;;;50.50;24.50;;;2.70;99.90;;;;;;4970677;28;20105;-86
2021/12/06 10:29:22;;;;;;;49.05;22.67;;;2.50;99.90;;;;;;4971064;28;20467;-86
2021/12/06 10:31:54;;;;;;;45.92;18.65;;;2.30;99.90;;;;;;4971102;28;20089;-85
2021/12/06 10:34:24;;;;;;;53.17;23.50;;;2.10;99.90;;;;;;4970359;28;20067;-87
2021/12/06 10:36:55;;;;;;;79.82;28.13;;;2.00;99.90;;;;;;4971046;28;20405;-86
2021/12/06 10:39:22;;;;;;;145.68;31.00;;;1.80;99.90;;;;;;4970889;28;20066;-86
2021/12/06 10:41:50;;;;;;;395.35;46.60;;;1.80;99.90;;;;;;4971185;28;20035;-86
2021/12/06 10:44:16;;;;;;;230.00;51.97;;;1.80;99.90;;;;;;4956075;28;20061;-86
2021/12/06 10:46:49;;;;;;;128.35;40.28;;;1.90;99.90;;;;;;4974802;28;20031;-87
2021/12/06 10:49:21;;;;;;;98.85;36.25;;;2.00;99.90;;;;;;4974676;28;20039;-86
2021/12/06 10:51:48;;;;;;;88.82;33.35;;;2.20;99.90;;;;;;4960263;28;20118;-86
2021/12/06 10:54:33;;;;;;;105.45;29.77;;;2.30;99.90;;;;;;4975344;28;20027;-87
2021/12/06 10:57:02;;;;;;;100.35;26.52;;;2.40;99.90;;;;;;4975167;28;20035;-87
2021/12/06 10:59:37;;;;;;;237.65;33.60;;;2.40;99.90;;;;;;4975589;28;20118;-87
2021/12/06 11:02:09;;;;;;;131.15;25.27;;;2.30;99.90;;;;;;4974680;28;20035;-85
2021/12/06 11:04:36;;;;;;;104.28;25.90;;;2.10;99.90;;;;;;4974518;28;20031;-86
2021/12/06 11:07:06;;;;;;;213.73;31.38;;;1.90;99.90;;;;;;4974550;28;20439;-86
2021/12/06 11:09:36;;;;;;;80.07;26.77;;;1.90;99.90;;;;;;4975243;28;20031;-86
2021/12/06 11:12:05;;;;;;;207.55;29.70;;;2.10;99.90;;;;;;4974402;28;20032;-87
2021/12/06 11:14:37;;;;;;;360.55;35.42;;;2.30;99.90;;;;;;4974471;28;20440;-87
2021/12/06 11:17:12;;;;;;;407.65;38.88;;;2.30;99.90;;;;;;4974352;28;20058;-86
2021/12/06 11:19:38;;;;;;;581.47;49.10;;;2.20;99.90;;;;;;4958891;28;20410;-87
2021/12/06 11:22:07;;;;;;;764.83;59.92;;;2.10;99.90;;;;;;4959767;29;20035;-86
2021/12/06 11:24:43;;;;;;;789.08;59.17;;;2.00;99.90;;;;;;4974941;28;20035;-86
2021/12/06 11:27:20;;;;;;;749.40;54.20;;;2.00;99.90;;;;;;4973926;28;20039;-86
2021/12/06 11:29:49;;;;;;;210.23;28.85;;;2.00;99.90;;;;;;4958023;28;20114;-86
2021/12/06 11:32:22;;;;;;;380.15;40.40;;;2.00;99.90;;;;;;4974237;28;20039;-86
2021/12/06 11:34:52;;;;;;;825.13;69.15;;;2.10;99.90;;;;;;4957932;28;20039;-86
2021/12/06 11:37:21;;;;;;;343.92;30.33;;;2.10;99.90;;;;;;4973763;28;20031;-87
2021/12/06 11:40:01;;;;;;;257.83;28.95;;;1.80;99.90;;;;;;4957974;28;20566;-86
2021/12/06 11:42:27;;;;;;;396.88;35.55;;;1.70;99.90;;;;;;4958086;28;20043;-86
2021/12/06 11:44:53;;;;;;;256.27;30.85;;;1.60;99.90;;;;;;4973893;28;20035;-87
2021/12/06 11:47:20;;;;;;;737.90;55.03;;;1.70;99.90;;;;;;4974188;28;20027;-86
2021/12/06 11:49:55;;;;;;;709.42;53.33;;;1.70;99.90;;;;;;4973878;28;20475;-86
2021/12/06 11:52:29;;;;;;;569.22;44.40;;;1.80;99.90;;;;;;4973732;28;20039;-86
2021/12/06 11:54:59;;;;;;;130.38;25.42;;;1.60;99.90;;;;;;4973784;28;20042;-87
2021/12/06 11:57:37;;;;;;;139.77;25.08;;;1.60;99.90;;;;;;4972925;28;20031;-85
2021/12/06 12:00:16;;;;;;;376.80;32.72;;;1.80;99.90;;;;;;4973648;28;20122;-86
2021/12/06 12:02:51;;;;;;;560.47;43.67;;;1.80;99.90;;;;;;4973382;28;20042;-86
2021/12/06 12:05:38;;;;;;;442.08;40.63;;;1.80;99.90;;;;;;4973818;28;20050;-85
2021/12/06 12:08:14;;;;;;;374.48;40.05;;;1.60;99.90;;;;;;4973340;28;20035;-86
2021/12/06 12:10:47;;;;;;;541.90;48.15;;;1.70;99.90;;;;;;4973328;28;20039;-87
2021/12/06 12:13:23;;;;;;;513.08;42.80;;;1.60;99.90;;;;;;4973420;28;20036;-86
2021/12/06 12:15:50;;;;;;;730.58;62.25;;;1.60;99.90;;;;;;4973021;28;20086;-86
2021/12/06 12:18:16;;;;;;;353.77;46.42;;;1.50;99.90;;;;;;4972869;28;20023;-85
2021/12/06 12:20:42;;;;;;;146.05;37.33;;;1.50;99.90;;;;;;4972597;28;20451;-86
2021/12/06 12:23:09;;;;;;;688.13;55.92;;;1.60;99.90;;;;;;4972786;28;20039;-85
2021/12/06 12:25:47;;;;;;;218.20;40.70;;;1.60;99.90;;;;;;4972838;28;20411;-85
2021/12/06 12:30:59;;;;;;;282.08;42.35;;;1.60;99.90;;;;;;4957874;28;20459;-85
2021/12/06 12:33:26;;;;;;;639.70;54.90;;;1.70;99.90;;;;;;4972511;28;20550;-85
2021/12/06 12:35:56;;;;;;;200.10;41.47;;;1.50;99.90;;;;;;4972784;28;20058;-85
2021/12/06 12:38:28;;;;;;;399.83;52.03;;;1.50;99.90;;;;;;4972622;28;20039;-85
2021/12/06 12:41:01;;;;;;;213.93;42.28;;;1.50;99.90;;;;;;4972677;28;20031;-85
2021/12/06 12:43:32;;;;;;;180.55;45.92;;;1.40;99.90;;;;;;4972717;28;20074;-85
2021/12/06 12:46:05;;;;;;;164.02;42.13;;;1.50;99.90;;;;;;4972949;28;20475;-85
2021/12/06 12:48:48;;;;;;;151.30;43.75;;;1.50;99.90;;;;;;4973356;28;20035;-84